createdAt,value
2022-09-23T00:01:26.639Z,100986.65
2022-09-23T00:03:55.037Z,100987.98
2022-09-23T00:06:24.133Z,100988.97
2022-09-23T00:08:52.521Z,100991.11
2022-09-23T00:11:28.571Z,100988.13
2022-09-23T00:13:58.792Z,100987.37
2022-09-23T00:16:30.798Z,100982.86
2022-09-23T00:18:58.921Z,100984.53
2022-09-23T00:21:27.463Z,100982.48
2022-09-23T00:23:55.544Z,100977.52
2022-09-23T00:26:23.850Z,100977.95
2022-09-23T00:28:52.021Z,100977.86
2022-09-23T00:31:23.753Z,100979.64
2022-09-23T00:34:01.908Z,100976.19
2022-09-23T00:36:32.490Z,100975.48
2022-09-23T00:39:00.380Z,100975.41
2022-09-23T00:41:28.248Z,100974.33
2022-09-23T00:43:59.796Z,100976.98
2022-09-23T00:46:37.298Z,100977.06
2022-09-23T00:49:21.946Z,100981.05
2022-09-23T00:51:55.962Z,100979.41
2022-09-23T00:54:27.518Z,100980.18
2022-09-23T00:56:57.799Z,100980.79
2022-09-23T00:59:26.469Z,100980.22
2022-09-23T01:01:58.030Z,100976.60
2022-09-23T01:04:28.494Z,100977.86
2022-09-23T01:07:11.644Z,100974.54
2022-09-23T01:09:39.757Z,100976.14
2022-09-23T01:12:23.321Z,100972.36
2022-09-23T01:15:05.525Z,100968.92
2022-09-23T01:17:40.458Z,100963.76
2022-09-23T01:20:30.130Z,100963.70
2022-09-23T01:23:19.910Z,100964.98
2022-09-23T01:26:12.147Z,100963.00
2022-09-23T01:28:58.444Z,100967.29
2022-09-23T01:31:43.105Z,100963.96
2022-09-23T01:34:22.491Z,100967.29
2022-09-23T01:37:14.267Z,100966.75
2022-09-23T01:39:58.310Z,100970.46
2022-09-23T01:42:39.636Z,100967.90
2022-09-23T01:45:16.335Z,100967.20
2022-09-23T01:48:13.959Z,100967.14
2022-09-23T01:50:59.100Z,100966.95
2022-09-23T01:53:45.502Z,100967.58
2022-09-23T01:56:20.733Z,100964.01
2022-09-23T01:59:01.709Z,100966.56
2022-09-23T02:01:56.128Z,100964.02
2022-09-23T02:04:54.478Z,100963.34
2022-09-23T02:07:32.379Z,100963.14
2022-09-23T02:10:25.295Z,100960.92
2022-09-23T02:13:00.102Z,100959.00
2022-09-23T02:15:37.041Z,100960.45
2022-09-23T02:18:20.071Z,100961.16
2022-09-23T02:20:50.747Z,100963.34
2022-09-23T02:23:27.773Z,100963.45
2022-09-23T02:26:12.076Z,100960.89
2022-09-23T02:28:52.558Z,100962.60
2022-09-23T02:31:47.888Z,100963.41
2022-09-23T02:35:00.406Z,100958.27
2022-09-23T02:37:48.342Z,100960.39
2022-09-23T02:40:23.789Z,100956.77
2022-09-23T02:43:06.290Z,100955.27
2022-09-23T02:45:34.534Z,100954.23
2022-09-23T02:48:18.506Z,100956.42
2022-09-23T02:50:47.917Z,100955.59
2022-09-23T02:53:16.318Z,100951.02
2022-09-23T02:55:44.645Z,100953.88
2022-09-23T02:58:14.188Z,100959.59
2022-09-23T03:00:44.732Z,100957.52
2022-09-23T03:03:33.964Z,100957.16
2022-09-23T03:06:28.964Z,100953.61
2022-09-23T03:09:21.924Z,100956.95
2022-09-23T03:12:03.203Z,100957.77
2022-09-23T03:14:54.037Z,100955.75
2022-09-23T03:17:53.260Z,100955.16
2022-09-23T03:20:27.213Z,100955.52
2022-09-23T03:23:02.964Z,100960.79
2022-09-23T03:25:34.621Z,100958.91
2022-09-23T03:28:04.842Z,100962.67
2022-09-23T03:30:38.132Z,100959.50
2022-09-23T03:33:09.785Z,100958.69
2022-09-23T03:36:03.044Z,100961.74
2022-09-23T03:38:36.687Z,100963.46
2022-09-23T03:41:08.682Z,100961.28
2022-09-23T03:43:38.964Z,100963.34
2022-09-23T03:46:08.372Z,100961.52
2022-09-23T03:48:36.198Z,100957.33
2022-09-23T03:51:20.362Z,100955.83
2022-09-23T03:53:48.484Z,100958.20
2022-09-23T03:56:16.904Z,100960.71
2022-09-23T03:58:47.033Z,100957.36
2022-09-23T04:01:15.126Z,100957.40
2022-09-23T04:03:43.662Z,100953.58
2022-09-23T04:06:11.402Z,100957.48
2022-09-23T04:08:39.190Z,100954.44
2022-09-23T04:11:07.260Z,100953.95
2022-09-23T04:13:35.125Z,100954.13
2022-09-23T04:16:02.957Z,100954.75
2022-09-23T04:18:31.573Z,100958.08
2022-09-23T04:21:00.108Z,100956.14
2022-09-23T04:23:28.328Z,100955.06
2022-09-23T04:25:56.325Z,100953.91
2022-09-23T04:28:24.165Z,100955.80
2022-09-23T04:30:52.028Z,100959.73
2022-09-23T04:33:19.792Z,100958.51
2022-09-23T04:35:52.677Z,100964.77
2022-09-23T04:38:20.545Z,100966.50
2022-09-23T04:40:49.072Z,100962.30
2022-09-23T04:43:17.336Z,100961.47
2022-09-23T04:45:45.392Z,100961.97
2022-09-23T04:48:14.052Z,100962.30
2022-09-23T04:50:42.328Z,100961.29
2022-09-23T04:53:10.499Z,100959.45
2022-09-23T04:55:38.264Z,100962.23
2022-09-23T04:58:06.027Z,100960.40
2022-09-23T05:00:33.937Z,100961.23
2022-09-23T05:03:01.960Z,100961.91
2022-09-23T05:05:31.036Z,100960.77
2022-09-23T05:07:58.817Z,100961.35
2022-09-23T05:10:26.576Z,100958.20
2022-09-23T05:12:57.273Z,100961.30
2022-09-23T05:15:25.285Z,100956.27
2022-09-23T05:17:53.275Z,100954.45
2022-09-23T05:20:21.119Z,100957.38
2022-09-23T05:22:48.906Z,100957.14
2022-09-23T05:25:16.950Z,100958.64
2022-09-23T05:27:44.721Z,100955.39
2022-09-23T05:30:12.743Z,100954.64
2022-09-23T05:32:40.546Z,100955.92
2022-09-23T05:35:08.820Z,100960.64
2022-09-23T05:37:37.336Z,100963.11
2022-09-23T05:40:06.032Z,100963.65
2022-09-23T05:42:33.841Z,100963.55
2022-09-23T05:45:01.820Z,100965.32
2022-09-23T05:47:29.585Z,100969.09
2022-09-23T05:50:00.287Z,100966.86
2022-09-23T05:52:28.591Z,100968.69
2022-09-23T05:54:56.358Z,100970.50
2022-09-23T05:57:24.835Z,100970.67
2022-09-23T05:59:52.801Z,100969.88
2022-09-23T06:02:20.632Z,100968.36
2022-09-23T06:04:48.535Z,100972.84
2022-09-23T06:07:16.298Z,100967.57
2022-09-23T06:09:44.264Z,100962.29
2022-09-23T06:12:14.286Z,100962.61
2022-09-23T06:14:42.245Z,100966.12
2022-09-23T06:17:10.113Z,100962.64
2022-09-23T06:19:37.977Z,100963.94
2022-09-23T06:22:05.742Z,100962.92
2022-09-23T06:24:33.505Z,100962.75
2022-09-23T06:27:01.528Z,100967.03
2022-09-23T06:29:31.078Z,100970.16
2022-09-23T06:31:59.878Z,100974.12
2022-09-23T06:34:27.868Z,100974.39
2022-09-23T06:36:55.808Z,100972.08
2022-09-23T06:39:23.771Z,100973.55
2022-09-23T06:41:51.635Z,100972.97
2022-09-23T06:44:19.603Z,100969.61
2022-09-23T06:46:47.921Z,100972.39
2022-09-23T06:49:15.700Z,100974.84
2022-09-23T06:51:43.486Z,100971.05
2022-09-23T06:54:11.387Z,100972.54
2022-09-23T06:56:40.167Z,100973.60
2022-09-23T06:59:11.070Z,100973.20
2022-09-23T07:01:39.323Z,100972.39
2022-09-23T07:04:08.029Z,100975.16
2022-09-23T07:06:36.335Z,100976.53
2022-09-23T07:09:06.386Z,100977.05
2022-09-23T07:11:34.271Z,100974.98
2022-09-23T07:14:02.526Z,100974.69
2022-09-23T07:16:30.344Z,100976.02
2022-09-23T07:18:58.395Z,100971.93
2022-09-23T07:21:27.004Z,100974.39
2022-09-23T07:23:55.336Z,100978.02
2022-09-23T07:26:23.080Z,100974.27
2022-09-23T07:28:55.494Z,100975.25
2022-09-23T07:31:35.869Z,100975.48
2022-09-23T07:34:07.064Z,100974.34
2022-09-23T07:36:37.579Z,100971.08
2022-09-23T07:39:05.569Z,100973.52
2022-09-23T07:41:34.209Z,100969.27
2022-09-23T07:44:03.130Z,100968.01
2022-09-23T07:46:34.127Z,100971.20
2022-09-23T07:49:03.381Z,100976.33
2022-09-23T07:51:36.470Z,100977.38
2022-09-23T07:54:10.133Z,100975.58
2022-09-23T07:56:39.108Z,100972.98
2022-09-23T07:59:09.345Z,100974.66
2022-09-23T08:01:40.536Z,100970.43
2022-09-23T08:04:14.793Z,100974.84
2022-09-23T08:06:57.757Z,100971.11
2022-09-23T08:09:28.544Z,100966.40
2022-09-23T08:11:56.279Z,100968.65
2022-09-23T08:14:24.146Z,100969.30
2022-09-23T08:16:52.442Z,100969.77
2022-09-23T08:19:20.418Z,100974.27
2022-09-23T08:21:52.230Z,100971.32
2022-09-23T08:24:23.788Z,100967.20
2022-09-23T08:26:53.481Z,100959.73
2022-09-23T08:29:23.243Z,100957.30
2022-09-23T08:31:52.025Z,100955.37
2022-09-23T08:34:21.560Z,100949.20
2022-09-23T08:36:50.185Z,100944.60
2022-09-23T08:39:20.396Z,100942.55
2022-09-23T08:41:59.052Z,100944.23
2022-09-23T08:44:48.083Z,100939.34
2022-09-23T08:47:24.833Z,100941.48
2022-09-23T08:49:59.441Z,100938.65
2022-09-23T08:52:31.384Z,100942.42
2022-09-23T08:54:59.561Z,100938.70
2022-09-23T08:57:43.604Z,100939.16
2022-09-23T09:00:20.527Z,100939.37
2022-09-23T09:02:49.394Z,100939.93
2022-09-23T09:05:25.481Z,100936.56
2022-09-23T09:07:57.697Z,100933.38
2022-09-23T09:10:41.944Z,100933.02
2022-09-23T09:13:43.377Z,100932.84
2022-09-23T09:16:59.012Z,100929.30
2022-09-23T09:19:48.045Z,100930.60
2022-09-23T09:25:25.566Z,100919.57
2022-09-23T09:27:54.872Z,100914.86
2022-09-23T09:30:25.012Z,100912.70
2022-09-23T09:33:02.513Z,100909.97
2022-09-23T09:35:57.606Z,100904.33
2022-09-23T09:38:27.198Z,100896.17
2022-09-23T09:40:56.062Z,100894.16
2022-09-23T09:43:23.936Z,100894.03
2022-09-23T09:46:14.353Z,100893.02
2022-09-23T09:49:15.002Z,100898.31
2022-09-23T09:51:42.928Z,100896.77
2022-09-23T09:54:27.024Z,100891.13
2022-09-23T09:56:55.169Z,100893.69
2022-09-23T09:59:28.892Z,100890.60
2022-09-23T10:02:21.646Z,100888.02
2022-09-23T10:05:02.315Z,100889.22
2022-09-23T10:07:32.322Z,100883.04
2022-09-23T10:10:32.447Z,100883.84
2022-09-23T10:13:15.996Z,100880.05
2022-09-23T10:15:45.560Z,100875.71
2022-09-23T10:18:20.595Z,100875.31
2022-09-23T10:20:48.994Z,100869.11
2022-09-23T10:23:22.936Z,100863.91
2022-09-23T10:26:10.423Z,100860.15
2022-09-23T10:28:51.961Z,100857.88
2022-09-23T10:31:25.548Z,100854.56
2022-09-23T10:33:57.382Z,100857.55
2022-09-23T10:36:26.838Z,100856.27
2022-09-23T10:39:20.752Z,100848.77
2022-09-23T10:42:16.472Z,100848.35
2022-09-23T10:45:02.501Z,100848.36
2022-09-23T10:47:47.128Z,100852.70
2022-09-23T10:50:33.322Z,100852.56
2022-09-23T10:53:08.168Z,100854.88
2022-09-23T10:55:54.857Z,100852.13
2022-09-23T10:59:03.477Z,100844.31
2022-09-23T11:02:00.326Z,100838.73
2022-09-23T11:04:51.721Z,100833.67
2022-09-23T11:07:37.102Z,100833.70
2022-09-23T11:10:05.193Z,100839.30
2022-09-23T11:12:44.442Z,100839.05
2022-09-23T11:15:21.055Z,100840.48
2022-09-23T11:18:16.860Z,100837.95
2022-09-23T11:21:23.288Z,100834.09
2022-09-23T11:24:28.224Z,100828.83
2022-09-23T11:27:08.172Z,100827.11
2022-09-23T11:29:59.594Z,100823.47
2022-09-23T11:35:45.927Z,100824.50
2022-09-23T11:38:28.151Z,100826.89
2022-09-23T11:41:02.580Z,100824.65
2022-09-23T11:43:37.360Z,100823.10
2022-09-23T11:46:17.051Z,100824.02
2022-09-23T11:48:47.489Z,100817.08
2022-09-23T11:51:48.699Z,100814.04
2022-09-23T11:54:22.148Z,100811.35
2022-09-23T11:56:58.891Z,100807.32
2022-09-23T11:59:46.383Z,100799.24
2022-09-23T12:02:30.587Z,100802.31
2022-09-23T12:05:08.958Z,100800.60
2022-09-23T12:07:45.202Z,100801.55
2022-09-23T12:10:14.687Z,100795.74
2022-09-23T12:12:53.132Z,100794.30
2022-09-23T12:15:34.711Z,100795.92
2022-09-23T12:18:34.733Z,100788.06
2022-09-23T12:21:38.849Z,100784.08
2022-09-23T12:24:31.697Z,100776.02
2022-09-23T12:27:06.318Z,100781.13
2022-09-23T12:29:36.945Z,100783.60
2022-09-23T12:32:10.673Z,100784.73
2022-09-23T12:34:49.244Z,100786.71
2022-09-23T12:37:43.966Z,100782.16
2022-09-23T12:40:34.802Z,100782.09
2022-09-23T12:43:03.049Z,100777.39
2022-09-23T12:45:32.875Z,100783.95
2022-09-23T12:48:04.726Z,100782.48
2022-09-23T12:51:00.684Z,100776.84
2022-09-23T12:53:34.852Z,100777.16
2022-09-23T12:56:19.406Z,100777.30
2022-09-23T12:58:47.173Z,100777.35
2022-09-23T13:01:15.462Z,100775.31
2022-09-23T13:04:09.906Z,100771.73
2022-09-23T13:06:49.891Z,100770.10
2022-09-23T13:09:25.095Z,100771.41
2022-09-23T13:11:53.652Z,100765.14
2022-09-23T13:14:27.511Z,100766.29
2022-09-23T13:16:58.582Z,100760.36
2022-09-23T13:19:26.458Z,100759.61
2022-09-23T13:21:54.171Z,100758.00
2022-09-23T13:24:31.343Z,100754.67
2022-09-23T13:27:01.835Z,100749.88
2022-09-23T13:29:37.427Z,100746.95
2022-09-23T13:32:06.501Z,100748.44
2022-09-23T13:34:38.803Z,100740.62
2022-09-23T13:37:32.533Z,100736.89
2022-09-23T13:40:17.618Z,100731.34
2022-09-23T13:42:51.104Z,100732.31
2022-09-23T13:45:21.311Z,100728.48
2022-09-23T13:47:51.516Z,100728.80
2022-09-23T13:50:23.877Z,100729.96
2022-09-23T13:52:56.601Z,100725.74
2022-09-23T13:55:27.117Z,100724.09
2022-09-23T13:58:13.741Z,100722.61
2022-09-23T14:00:41.532Z,100718.83
2022-09-23T14:03:25.955Z,100722.41
2022-09-23T14:05:56.528Z,100721.63
2022-09-23T14:08:25.255Z,100719.56
2022-09-23T14:10:53.693Z,100715.40
2022-09-23T14:13:26.545Z,100713.40
2022-09-23T14:15:59.737Z,100712.58
2022-09-23T14:18:44.313Z,100706.48
2022-09-23T14:21:50.791Z,100706.16
2022-09-23T14:24:35.777Z,100708.38
2022-09-23T14:27:06.428Z,100707.40
2022-09-23T14:29:39.894Z,100709.64
2022-09-23T14:32:11.909Z,100708.91
2022-09-23T14:34:41.653Z,100708.13
2022-09-23T14:37:37.272Z,100704.61
2022-09-23T14:40:12.474Z,100701.08
2022-09-23T14:42:43.826Z,100700.50
2022-09-23T14:45:19.660Z,100700.81
2022-09-23T14:47:51.626Z,100697.23
2022-09-23T14:50:47.690Z,100697.09
2022-09-23T14:53:24.245Z,100696.75
2022-09-23T14:56:07.309Z,100690.95
2022-09-23T14:58:54.031Z,100688.29
2022-09-23T15:01:31.260Z,100690.16
2022-09-23T15:04:17.748Z,100690.69
2022-09-23T15:07:02.734Z,100689.06
2022-09-23T15:09:40.074Z,100687.11
2022-09-23T15:12:16.590Z,100683.58
2022-09-23T15:14:49.587Z,100684.71
2022-09-23T15:17:25.842Z,100685.94
2022-09-23T15:19:57.211Z,100683.42
2022-09-23T15:22:25.856Z,100681.98
2022-09-23T15:24:56.107Z,100680.30
2022-09-23T15:27:34.317Z,100682.11
2022-09-23T15:30:15.591Z,100680.80
2022-09-23T15:32:45.002Z,100678.65
2022-09-23T15:35:21.674Z,100678.23
2022-09-23T15:37:50.456Z,100675.91
2022-09-23T15:40:21.060Z,100675.30
2022-09-23T15:42:52.592Z,100675.08
2022-09-23T15:45:26.377Z,100674.66
2022-09-23T15:47:55.953Z,100678.52
2022-09-23T15:50:23.819Z,100680.97
2022-09-23T15:52:51.621Z,100683.07
2022-09-23T15:55:23.761Z,100682.05
2022-09-23T15:57:51.529Z,100682.95
2022-09-23T16:00:19.785Z,100682.63
2022-09-23T16:02:49.655Z,100681.10
2022-09-23T16:05:49.929Z,100684.77
2022-09-23T16:08:23.485Z,100681.27
2022-09-23T16:10:51.715Z,100683.55
2022-09-23T16:13:19.603Z,100684.83
2022-09-23T16:15:47.426Z,100684.73
2022-09-23T16:18:15.294Z,100687.20
2022-09-23T16:20:45.884Z,100688.11
2022-09-23T16:23:38.837Z,100689.02
2022-09-23T16:26:15.887Z,100693.02
2022-09-23T16:28:44.958Z,100688.78
2022-09-23T16:31:17.294Z,100690.86
2022-09-23T16:33:47.075Z,100690.35
2022-09-23T16:36:25.985Z,100691.90
2022-09-23T16:38:57.608Z,100688.31
2022-09-23T16:41:29.479Z,100691.91
2022-09-23T16:44:00.616Z,100686.64
2022-09-23T16:46:29.997Z,100686.79
2022-09-23T16:48:59.533Z,100685.92
2022-09-23T16:51:30.513Z,100686.77
2022-09-23T16:53:59.696Z,100687.11
2022-09-23T16:56:29.438Z,100683.31
2022-09-23T16:58:57.344Z,100686.36
2022-09-23T17:01:46.307Z,100684.79
2022-09-23T17:04:17.025Z,100679.30
2022-09-23T17:06:50.310Z,100679.94
2022-09-23T17:09:20.228Z,100677.64
2022-09-23T17:11:58.849Z,100681.70
2022-09-23T17:14:29.966Z,100685.91
2022-09-23T17:16:58.995Z,100680.92
2022-09-23T17:19:26.947Z,100684.13
2022-09-23T17:21:54.812Z,100685.28
2022-09-23T17:24:22.782Z,100683.52
2022-09-23T17:26:53.303Z,100681.44
2022-09-23T17:29:21.689Z,100687.52
2022-09-23T17:31:49.901Z,100689.88
2022-09-23T17:34:19.473Z,100691.02
2022-09-23T17:36:47.190Z,100693.02
2022-09-23T17:39:14.994Z,100693.33
2022-09-23T17:41:43.471Z,100694.15
2022-09-23T17:44:11.786Z,100693.80
2022-09-23T17:46:39.622Z,100691.73
2022-09-23T17:49:08.625Z,100694.27
2022-09-23T17:51:37.396Z,100694.74
2022-09-23T17:54:05.286Z,100694.22
2022-09-23T17:56:34.161Z,100692.30
2022-09-23T17:59:03.717Z,100693.11
2022-09-23T18:01:32.024Z,100690.70
2022-09-23T18:04:02.046Z,100689.99
2022-09-23T18:06:32.474Z,100687.74
2022-09-23T18:09:03.752Z,100688.92
2022-09-23T18:11:35.582Z,100689.23
2022-09-23T18:14:07.935Z,100689.06
2022-09-23T18:16:37.793Z,100692.79
2022-09-23T18:19:07.276Z,100691.41
2022-09-23T18:21:37.932Z,100693.46
2022-09-23T18:24:30.863Z,100692.61
2022-09-23T18:26:56.281Z,100691.76
2022-09-23T18:29:24.051Z,100695.84
2022-09-23T18:31:51.900Z,100694.16
2022-09-23T18:34:20.463Z,100692.98
2022-09-23T18:36:48.340Z,100693.33
2022-09-23T18:39:16.106Z,100688.09
2022-09-23T18:41:43.923Z,100689.63
2022-09-23T18:44:11.801Z,100689.80
2022-09-23T18:46:39.791Z,100686.39
2022-09-23T18:49:27.158Z,100691.34
2022-09-23T18:51:57.216Z,100690.48
2022-09-23T18:54:28.230Z,100693.89
2022-09-23T18:56:56.759Z,100691.52
2022-09-23T18:59:28.097Z,100694.06
2022-09-23T19:01:57.651Z,100693.06
2022-09-23T19:04:27.383Z,100693.61
2022-09-23T19:06:56.847Z,100691.21
2022-09-23T19:09:25.556Z,100689.48
2022-09-23T19:11:53.925Z,100689.65
2022-09-23T19:14:21.799Z,100690.32
2022-09-23T19:16:50.790Z,100694.75
2022-09-23T19:19:18.615Z,100691.18
2022-09-23T19:21:46.467Z,100694.93
2022-09-23T19:24:19.964Z,100694.59
2022-09-23T19:26:48.781Z,100696.64
2022-09-23T19:29:22.194Z,100701.58
2022-09-23T19:31:50.219Z,100703.83
2022-09-23T19:34:23.763Z,100707.59
2022-09-23T19:36:52.888Z,100705.91
2022-09-23T19:39:23.102Z,100706.79
2022-09-23T19:41:52.547Z,100705.80
2022-09-23T19:44:20.509Z,100703.95
2022-09-23T19:46:55.112Z,100705.84
2022-09-23T19:49:24.888Z,100706.67
2022-09-23T19:51:55.831Z,100705.67
2022-09-23T19:54:26.715Z,100704.63
2022-09-23T19:56:54.720Z,100699.35
2022-09-23T19:59:22.550Z,100696.45
2022-09-23T20:01:50.401Z,100695.07
2022-09-23T20:04:18.286Z,100697.61
2022-09-23T20:06:46.426Z,100694.02
2022-09-23T20:09:14.588Z,100697.42
2022-09-23T20:11:44.307Z,100693.29
2022-09-23T20:14:12.999Z,100692.58
2022-09-23T20:16:40.847Z,100691.86
2022-09-23T20:19:10.157Z,100690.27
2022-09-23T20:21:37.993Z,100694.29
2022-09-23T20:24:07.056Z,100688.25
2022-09-23T20:26:53.433Z,100688.83
2022-09-23T20:29:21.963Z,100687.39
2022-09-23T20:31:49.768Z,100685.59
2022-09-23T20:34:18.864Z,100685.17
2022-09-23T20:36:46.638Z,100686.11
2022-09-23T20:39:14.457Z,100683.32
2022-09-23T20:41:42.300Z,100681.67
2022-09-23T20:44:12.718Z,100682.73
2022-09-23T20:46:47.910Z,100681.60
2022-09-23T20:49:17.748Z,100687.11
2022-09-23T20:51:48.248Z,100684.95
2022-09-23T20:54:19.381Z,100686.54
2022-09-23T20:56:48.851Z,100686.05
2022-09-23T20:59:18.325Z,100685.98
2022-09-23T21:01:47.499Z,100684.02
2022-09-23T21:04:15.630Z,100686.42
2022-09-23T21:06:43.676Z,100685.63
2022-09-23T21:09:11.480Z,100683.98
2022-09-23T21:11:39.276Z,100686.23
2022-09-23T21:14:07.183Z,100687.99
2022-09-23T21:16:35.284Z,100686.17
2022-09-23T21:19:03.935Z,100688.25
2022-09-23T21:21:31.767Z,100687.16
2022-09-23T21:24:17.471Z,100686.05
2022-09-23T21:26:47.901Z,100685.92
2022-09-23T21:29:16.538Z,100687.00
2022-09-23T21:31:44.402Z,100689.79
2022-09-23T21:34:12.736Z,100689.17
2022-09-23T21:36:43.274Z,100688.92
2022-09-23T21:39:12.456Z,100691.57
2022-09-23T21:41:40.574Z,100689.65
2022-09-23T21:44:08.674Z,100688.88
2022-09-23T21:46:37.147Z,100687.80
2022-09-23T21:49:05.093Z,100688.08
2022-09-23T21:51:37.688Z,100683.59
2022-09-23T21:54:06.498Z,100683.71
2022-09-23T21:56:36.674Z,100689.06
2022-09-23T21:59:07.712Z,100690.15
2022-09-23T22:01:38.427Z,100688.56
2022-09-23T22:04:13.313Z,100692.42
2022-09-23T22:06:41.361Z,100694.38
2022-09-23T22:09:13.541Z,100692.27
2022-09-23T22:12:00.707Z,100691.19
2022-09-23T22:14:30.567Z,100689.20
2022-09-23T22:17:01.557Z,100690.60
2022-09-23T22:19:44.343Z,100690.54
2022-09-23T22:22:16.683Z,100685.71
2022-09-23T22:24:46.672Z,100680.21
2022-09-23T22:27:16.987Z,100678.59
2022-09-23T22:30:03.817Z,100675.25
2022-09-23T22:32:34.706Z,100674.35
2022-09-23T22:35:02.738Z,100671.23
2022-09-23T22:37:34.351Z,100667.98
2022-09-23T22:40:05.459Z,100666.71
2022-09-23T22:42:33.307Z,100667.96
2022-09-23T22:45:01.046Z,100667.92
2022-09-23T22:47:28.820Z,100667.69
2022-09-23T22:49:56.584Z,100664.73
2022-09-23T22:52:24.566Z,100662.68
2022-09-23T22:54:53.018Z,100660.12
2022-09-23T22:57:20.793Z,100660.16
2022-09-23T22:59:48.576Z,100656.13
2022-09-23T23:02:21.952Z,100655.19
2022-09-23T23:04:50.651Z,100653.29
2022-09-23T23:07:21.301Z,100647.02
2022-09-23T23:09:50.557Z,100646.04
2022-09-23T23:12:20.439Z,100644.25
2022-09-23T23:14:49.503Z,100640.40
2022-09-23T23:17:18.845Z,100641.85
2022-09-23T23:19:47.603Z,100645.22
2022-09-23T23:22:15.651Z,100644.38
2022-09-23T23:24:43.449Z,100641.52
2022-09-23T23:27:11.178Z,100639.69
2022-09-23T23:29:38.908Z,100641.20
2022-09-23T23:32:07.756Z,100640.80
2022-09-23T23:34:35.482Z,100642.13
2022-09-23T23:37:03.334Z,100641.27
2022-09-23T23:39:31.091Z,100641.06
2022-09-23T23:41:58.813Z,100640.50
2022-09-23T23:44:27.433Z,100638.45
2022-09-23T23:46:55.369Z,100632.69
2022-09-23T23:49:23.575Z,100634.48
2022-09-23T23:51:51.510Z,100636.48
2022-09-23T23:54:19.247Z,100634.39
2022-09-23T23:56:47.173Z,100638.39
2022-09-23T23:59:15.456Z,100638.14
